Time;durP1;ratioP1;P1;durP2;ratioP2;P2;SDS_P1;SDS_P2;PMS_P1;PMS_P2;Temp;Humidity;BMP_temperature;BMP_pressure;BME280_temperature;BME280_humidity;BME280_pressure;Samples;Min_cycle;Max_cycle;Signal;HPM_P1;HPM_P2
2022/03/29 00:01:58;;;;;;;24.00;12.30;;;;;;;8.94;64.84;98905.20;103501;1302;24449;-29
2022/03/29 00:04:24;;;;;;;26.00;11.80;;;;;;;9.02;64.59;98898.39;103451;1302;24368;-24
2022/03/29 00:06:50;;;;;;;27.70;13.10;;;;;;;9.02;64.51;98900.16;103453;1302;24266;-25
2022/03/29 00:09:16;;;;;;;23.70;12.50;;;;;;;9.15;64.13;98894.16;103370;1302;24452;-28
2022/03/29 00:11:42;;;;;;;24.10;12.50;;;;;;;9.17;64.26;98894.38;103478;1302;24181;-26
2022/03/29 00:14:08;;;;;;;20.20;8.70;;;;;;;9.23;64.31;98889.58;103457;1302;22830;-27
2022/03/29 00:16:34;;;;;;;20.70;11.10;;;;;;;9.49;63.23;98886.32;103427;1302;24321;-29
2022/03/29 00:19:00;;;;;;;24.80;11.80;;;;;;;9.37;63.69;98888.60;103472;1302;24738;-26
2022/03/29 00:21:26;;;;;;;10.40;5.90;;;;;;;9.55;63.00;98885.92;103458;1302;24275;-27
2022/03/29 00:23:52;;;;;;;28.60;12.60;;;;;;;9.67;62.36;98882.52;103462;1302;24371;-25
2022/03/29 00:26:18;;;;;;;11.80;6.40;;;;;;;9.57;62.92;98880.15;103508;1302;24228;-28
2022/03/29 00:28:44;;;;;;;23.20;12.70;;;;;;;9.52;62.78;98876.10;103506;1302;22521;-25
2022/03/29 00:31:11;;;;;;;20.60;7.70;;;;;;;9.49;62.87;98873.46;103340;1302;24381;-25
2022/03/29 00:33:37;;;;;;;17.80;8.80;;;;;;;9.58;62.51;98874.64;103523;1302;22881;-28
2022/03/29 00:36:03;;;;;;;18.00;9.60;;;;;;;9.36;62.79;98871.81;103489;1302;24205;-29
2022/03/29 00:38:28;;;;;;;22.80;12.00;;;;;;;9.21;63.42;98870.45;103502;1302;24237;-25
2022/03/29 00:40:54;;;;;;;13.90;9.10;;;;;;;9.02;64.04;98868.42;103451;1302;24304;-27
2022/03/29 00:43:20;;;;;;;13.60;6.70;;;;;;;9.21;63.34;98862.34;103523;1302;24299;-26
2022/03/29 00:45:45;;;;;;;15.70;6.80;;;;;;;9.23;63.08;98863.85;103527;1302;26287;-25
2022/03/29 00:48:13;;;;;;;18.60;6.60;;;;;;;9.03;63.77;98867.02;103409;1302;24375;-28
2022/03/29 00:50:41;;;;;;;18.80;9.40;;;;;;;8.87;64.27;98865.64;103573;1302;24423;-29
2022/03/29 00:53:07;;;;;;;28.40;13.90;;;;;;;8.82;64.51;98865.41;103490;1302;24290;-25
2022/03/29 00:55:32;;;;;;;14.50;8.90;;;;;;;8.57;65.51;98859.71;103477;1302;24253;-28
2022/03/29 00:58:01;;;;;;;23.20;9.50;;;;;;;8.37;66.37;98860.34;103529;1301;24217;-26
2022/03/29 01:00:27;;;;;;;22.90;9.60;;;;;;;8.20;66.77;98858.32;103457;1302;25348;-24
2022/03/29 01:02:53;;;;;;;20.60;10.20;;;;;;;8.16;66.86;98854.80;103435;1302;24311;-30
2022/03/29 01:05:18;;;;;;;23.50;12.70;;;;;;;8.05;67.18;98852.05;103406;1302;24188;-25
2022/03/29 01:07:44;;;;;;;15.70;8.60;;;;;;;7.91;68.01;98849.05;103453;1302;24365;-27
2022/03/29 01:10:10;;;;;;;15.20;7.70;;;;;;;8.04;67.78;98842.96;103450;1302;24395;-29
2022/03/29 01:12:37;;;;;;;18.70;7.20;;;;;;;8.06;67.90;98838.42;103445;1302;24214;-27
2022/03/29 01:15:05;;;;;;;17.90;7.10;;;;;;;8.06;68.12;98838.45;103488;1302;24278;-28
2022/03/29 01:20:01;;;;;;;27.30;11.10;;;;;;;8.12;68.09;98838.89;103470;1302;24240;-25
2022/03/29 01:22:26;;;;;;;41.90;9.90;;;;;;;8.00;68.34;98832.17;103430;1302;24293;-24
2022/03/29 01:24:52;;;;;;;16.80;8.50;;;;;;;8.03;68.16;98831.33;103451;1302;22614;-28
2022/03/29 01:27:18;;;;;;;10.90;5.80;;;;;;;8.01;68.24;98825.88;103398;1302;24235;-27
2022/03/29 01:29:44;;;;;;;39.40;10.00;;;;;;;7.87;68.60;98822.68;103402;1302;24220;-30
2022/03/29 01:32:10;;;;;;;24.20;9.90;;;;;;;7.84;68.83;98820.84;103477;1302;24308;-25
2022/03/29 01:34:41;;;;;;;31.00;11.00;;;;;;;7.72;69.28;98820.37;103460;1302;24214;-29
2022/03/29 01:37:07;;;;;;;27.90;14.50;;;;;;;7.44;70.58;98822.31;103494;1302;24294;-29
2022/03/29 01:39:34;;;;;;;33.40;7.90;;;;;;;7.36;70.97;98825.05;103532;1302;24262;-28
2022/03/29 01:42:00;;;;;;;23.00;11.70;;;;;;;7.57;70.11;98827.80;103469;1302;22663;-25
2022/03/29 01:44:26;;;;;;;20.50;11.20;;;;;;;7.41;70.33;98828.27;103245;1302;24351;-28
2022/03/29 01:46:53;;;;;;;23.00;12.80;;;;;;;7.09;70.81;98827.15;103478;1302;24245;-27
2022/03/29 01:49:19;;;;;;;24.00;13.90;;;;;;;6.83;71.51;98822.31;103334;1302;24187;-28
2022/03/29 01:51:45;;;;;;;24.20;12.00;;;;;;;6.45;72.52;98827.91;103428;1302;24350;-31
2022/03/29 01:54:11;;;;;;;22.20;11.50;;;;;;;6.36;73.30;98824.25;103499;1302;22573;-29
2022/03/29 01:56:37;;;;;;;22.90;11.70;;;;;;;6.29;74.56;98824.05;103417;1302;24294;-25
2022/03/29 01:59:04;;;;;;;28.10;12.00;;;;;;;6.20;74.70;98814.65;103414;1302;24255;-25
2022/03/29 02:01:38;;;;;;;24.80;12.90;;;;;;;6.15;75.11;98812.77;103494;1302;24318;-30
2022/03/29 02:04:04;;;;;;;26.20;11.20;;;;;;;6.16;74.97;98806.77;103413;1302;24249;-30
2022/03/29 02:06:30;;;;;;;22.30;11.50;;;;;;;6.20;74.98;98807.52;103381;1302;24263;-28
2022/03/29 02:08:57;;;;;;;27.80;12.50;;;;;;;6.29;74.68;98798.09;103459;1302;24214;-29
2022/03/29 02:11:23;;;;;;;21.20;10.60;;;;;;;6.19;75.29;98796.14;103447;1302;24990;-28
2022/03/29 02:13:49;;;;;;;23.70;12.30;;;;;;;6.16;75.55;98796.27;103394;1303;23838;-28
2022/03/29 02:16:14;;;;;;;26.40;12.70;;;;;;;6.16;76.14;98798.69;103425;1302;24272;-30
2022/03/29 02:18:40;;;;;;;30.70;15.40;;;;;;;6.15;75.85;98805.77;103538;1302;24222;-25
2022/03/29 02:21:06;;;;;;;27.90;14.50;;;;;;;6.11;75.93;98803.81;103442;1302;24332;-27
2022/03/29 02:23:32;;;;;;;23.90;11.50;;;;;;;6.06;76.36;98798.53;103445;1302;24240;-30
2022/03/29 02:25:57;;;;;;;38.80;14.70;;;;;;;5.97;76.51;98795.78;103422;1302;24253;-26
2022/03/29 02:28:23;;;;;;;21.00;11.60;;;;;;;5.85;76.81;98790.52;103387;1303;24309;-25
2022/03/29 02:30:49;;;;;;;29.10;13.90;;;;;;;5.75;77.07;98781.04;103550;1302;22835;-25
2022/03/29 02:33:15;;;;;;;31.40;16.20;;;;;;;5.67;77.41;98777.55;103377;1302;24368;-29
2022/03/29 02:35:41;;;;;;;23.60;12.30;;;;;;;5.58;77.50;98775.98;103442;1302;24286;-25
2022/03/29 02:38:07;;;;;;;25.90;14.70;;;;;;;5.51;77.45;98777.39;103500;1302;22523;-28
2022/03/29 02:40:33;;;;;;;32.30;13.80;;;;;;;5.46;78.02;98778.36;103429;1302;24459;-26
2022/03/29 02:43:00;;;;;;;24.00;14.50;;;;;;;5.53;77.62;98782.64;103451;1302;24205;-25
2022/03/29 02:45:26;;;;;;;22.70;12.70;;;;;;;5.52;77.67;98782.94;103419;1302;24196;-26
2022/03/29 02:47:53;;;;;;;23.20;13.60;;;;;;;5.51;78.37;98779.55;103448;1301;24320;-25
2022/03/29 02:50:20;;;;;;;31.60;14.00;;;;;;;5.60;78.13;98781.67;103454;1302;24338;-25
2022/03/29 02:52:47;;;;;;;28.30;13.20;;;;;;;5.63;77.86;98790.37;103470;1302;24320;-26
2022/03/29 02:55:14;;;;;;;25.60;14.10;;;;;;;5.69;78.01;98792.48;103441;1302;24302;-30
2022/03/29 02:57:41;;;;;;;22.40;10.70;;;;;;;5.75;77.73;98797.36;103416;1302;24371;-25
2022/03/29 03:00:07;;;;;;;27.70;13.50;;;;;;;5.76;78.05;98792.98;103314;1305;24480;-28
2022/03/29 03:02:33;;;;;;;32.70;11.70;;;;;;;5.79;78.25;98794.23;103380;1302;24223;-27
2022/03/29 03:05:00;;;;;;;31.90;13.00;;;;;;;5.75;78.67;98792.16;103417;1302;24298;-28
2022/03/29 03:07:26;;;;;;;26.50;13.20;;;;;;;5.65;78.75;98786.99;103469;1302;24255;-25
2022/03/29 03:09:53;;;;;;;21.20;8.80;;;;;;;5.67;78.51;98779.98;103404;1302;24188;-25
2022/03/29 03:12:19;;;;;;;25.40;13.50;;;;;;;5.68;79.26;98781.59;103501;1301;24311;-28
2022/03/29 03:14:45;;;;;;;24.70;13.50;;;;;;;5.68;79.49;98776.11;103439;1302;24214;-28
2022/03/29 03:17:11;;;;;;;19.70;9.80;;;;;;;5.64;79.46;98777.06;103410;1302;24244;-29
2022/03/29 03:19:36;;;;;;;27.30;12.00;;;;;;;5.54;79.86;98768.73;103515;1302;24304;-30
2022/03/29 03:22:03;;;;;;;31.90;12.30;;;;;;;5.55;80.57;98767.70;103315;1302;24413;-28
2022/03/29 03:24:28;;;;;;;26.70;11.00;;;;;;;5.75;79.53;98769.81;103483;1302;24002;-28
2022/03/29 03:26:54;;;;;;;28.70;12.60;;;;;;;5.67;79.63;98768.79;103487;1302;22824;-28
2022/03/29 03:29:20;;;;;;;18.90;9.30;;;;;;;5.70;79.93;98773.18;103420;1302;24235;-26
2022/03/29 03:31:46;;;;;;;21.00;10.90;;;;;;;5.85;79.45;98772.92;103438;1302;24214;-28
2022/03/29 03:34:11;;;;;;;24.60;11.70;;;;;;;5.78;79.74;98770.92;103456;1302;24373;-28
2022/03/29 03:36:37;;;;;;;26.10;10.70;;;;;;;5.70;80.35;98776.09;103421;1302;24433;-28
2022/03/29 03:39:03;;;;;;;17.50;8.60;;;;;;;5.90;80.22;98782.09;103422;1302;24256;-25
2022/03/29 03:41:29;;;;;;;12.20;6.90;;;;;;;5.79;80.35;98781.08;103443;1302;24289;-28
2022/03/29 03:43:54;;;;;;;20.30;11.30;;;;;;;5.93;80.04;98778.32;103448;1302;24416;-28
2022/03/29 03:46:20;;;;;;;18.00;10.50;;;;;;;5.72;80.41;98771.91;103429;1302;24259;-27
2022/03/29 03:48:46;;;;;;;16.90;8.90;;;;;;;5.76;80.78;98770.81;103426;1302;24304;-29
2022/03/29 03:51:11;;;;;;;27.70;12.10;;;;;;;5.67;80.98;98771.33;103386;1302;24263;-25
2022/03/29 03:53:37;;;;;;;19.80;11.70;;;;;;;5.66;81.00;98776.42;103426;1302;24319;-28
2022/03/29 03:56:03;;;;;;;19.40;9.40;;;;;;;5.71;81.01;98772.73;103428;1302;24250;-28
2022/03/29 03:58:29;;;;;;;18.80;9.00;;;;;;;5.91;80.24;98775.87;103380;1302;24241;-30
2022/03/29 04:00:54;;;;;;;16.00;9.40;;;;;;;6.06;79.46;98771.79;103464;1302;24378;-28
2022/03/29 04:03:20;;;;;;;11.90;7.40;;;;;;;5.88;79.90;98773.80;103460;1302;24282;-25
2022/03/29 04:05:46;;;;;;;15.00;8.20;;;;;;;6.02;79.56;98773.90;103411;1302;24287;-31
2022/03/29 04:08:12;;;;;;;11.70;8.10;;;;;;;5.93;79.67;98773.75;103457;1302;24318;-27
2022/03/29 04:10:38;;;;;;;13.10;8.20;;;;;;;5.91;79.45;98770.20;103540;1302;24383;-29
2022/03/29 04:13:04;;;;;;;23.50;9.70;;;;;;;5.72;80.16;98768.79;102967;1302;579236;-28
2022/03/29 04:15:30;;;;;;;18.80;10.30;;;;;;;5.64;80.57;98771.33;103465;1302;24223;-26
2022/03/29 04:17:57;;;;;;;17.10;9.00;;;;;;;5.58;80.60;98766.67;103476;1302;24446;-25
2022/03/29 04:20:23;;;;;;;16.00;8.90;;;;;;;5.52;81.05;98766.42;103264;1302;22511;-25
2022/03/29 04:22:48;;;;;;;17.50;8.90;;;;;;;5.58;80.49;98766.93;103434;1302;22502;-28
2022/03/29 04:25:14;;;;;;;23.30;9.30;;;;;;;5.53;80.58;98763.98;103277;1302;24445;-27
2022/03/29 04:27:40;;;;;;;9.50;6.10;;;;;;;5.47;80.70;98766.58;103429;1302;24262;-27
2022/03/29 04:30:06;;;;;;;15.00;7.80;;;;;;;5.40;80.75;98771.60;103445;1302;25018;-25
2022/03/29 04:32:36;;;;;;;22.40;9.10;;;;;;;5.36;80.82;98777.52;103401;1302;22693;-25
2022/03/29 04:35:02;;;;;;;20.40;7.60;;;;;;;5.22;80.99;98778.27;103455;1302;24340;-25
2022/03/29 04:37:27;;;;;;;16.20;9.20;;;;;;;5.13;80.90;98784.83;103449;1302;24352;-27
2022/03/29 04:39:53;;;;;;;13.20;6.40;;;;;;;5.17;80.43;98789.85;103305;1302;24228;-25
2022/03/29 04:42:20;;;;;;;12.90;8.20;;;;;;;5.04;80.78;98794.58;103399;1302;24395;-28
2022/03/29 04:44:46;;;;;;;14.50;7.90;;;;;;;4.93;80.73;98797.92;103461;1302;22512;-24
2022/03/29 04:47:12;;;;;;;16.60;8.80;;;;;;;4.87;79.88;98802.22;103427;1302;24323;-26
2022/03/29 04:49:37;;;;;;;18.40;9.60;;;;;;;4.78;80.64;98808.52;103442;1302;22521;-25
2022/03/29 04:52:06;;;;;;;18.20;10.30;;;;;;;4.70;80.90;98814.79;103447;1302;24349;-30
2022/03/29 04:54:31;;;;;;;24.20;9.90;;;;;;;4.61;80.76;98811.92;103499;1302;24227;-28
2022/03/29 04:57:00;;;;;;;20.40;11.20;;;;;;;4.52;80.74;98809.86;103444;1302;23920;-30
2022/03/29 04:59:26;;;;;;;13.30;7.70;;;;;;;4.49;81.12;98813.64;103329;1302;24314;-27
2022/03/29 05:01:51;;;;;;;12.90;7.30;;;;;;;4.49;80.66;98813.92;103456;1302;22569;-30
2022/03/29 05:04:17;;;;;;;28.10;10.80;;;;;;;4.47;80.98;98815.19;103427;1302;22986;-30
2022/03/29 05:06:43;;;;;;;16.70;8.60;;;;;;;4.42;81.68;98815.18;103385;1302;24232;-29
2022/03/29 05:09:08;;;;;;;15.30;7.90;;;;;;;4.41;82.21;98816.91;103443;1302;22763;-26
2022/03/29 05:11:35;;;;;;;19.40;8.00;;;;;;;4.50;81.62;98819.55;103359;1302;24301;-24
2022/03/29 05:14:01;;;;;;;15.10;7.90;;;;;;;4.53;81.38;98821.44;103542;1302;24220;-25
2022/03/29 05:16:27;;;;;;;14.40;7.60;;;;;;;4.62;81.96;98822.39;103335;1302;24342;-25
2022/03/29 05:18:53;;;;;;;11.70;7.00;;;;;;;4.73;81.31;98821.38;103451;1302;24203;-28
2022/03/29 05:21:18;;;;;;;10.30;6.40;;;;;;;4.84;80.48;98820.33;103400;1302;24240;-28
2022/03/29 05:23:44;;;;;;;13.40;6.80;;;;;;;4.78;80.74;98821.39;103514;1302;24726;-26
2022/03/29 05:26:10;;;;;;;10.70;6.50;;;;;;;4.77;81.06;98824.12;103368;1302;22505;-30
2022/03/29 05:28:36;;;;;;;12.90;7.80;;;;;;;4.83;81.29;98826.98;103319;1302;24224;-29
2022/03/29 05:31:02;;;;;;;15.90;8.40;;;;;;;4.86;81.07;98832.09;103402;1302;22756;-28
2022/03/29 05:33:28;;;;;;;18.60;8.40;;;;;;;4.87;81.18;98828.42;103420;1302;24304;-30
2022/03/29 05:35:53;;;;;;;17.90;7.10;;;;;;;4.89;81.53;98831.94;103421;1302;24261;-25
2022/03/29 05:38:19;;;;;;;14.10;6.70;;;;;;;5.03;81.17;98832.67;103458;1302;24291;-28
2022/03/29 05:40:45;;;;;;;9.60;5.80;;;;;;;5.11;80.93;98830.70;103414;1302;24214;-28
2022/03/29 05:43:11;;;;;;;9.70;5.40;;;;;;;5.19;80.88;98834.74;103460;1302;24476;-23
2022/03/29 05:45:38;;;;;;;10.30;5.90;;;;;;;5.34;80.87;98837.67;103453;1302;24266;-28
2022/03/29 05:50:34;;;;;;;8.90;5.10;;;;;;;5.55;80.30;98836.13;103273;1302;24317;-27
2022/03/29 05:53:02;;;;;;;10.60;6.60;;;;;;;5.53;80.47;98837.40;103450;1302;24249;-28
2022/03/29 05:55:28;;;;;;;10.90;5.20;;;;;;;5.46;81.05;98844.58;103472;1302;22951;-27
2022/03/29 05:57:54;;;;;;;12.10;5.20;;;;;;;5.58;81.37;98841.75;103408;1302;24258;-25
2022/03/29 06:00:23;;;;;;;12.20;6.30;;;;;;;5.82;80.66;98838.56;103516;1302;24414;-28
2022/03/29 06:02:49;;;;;;;7.80;5.60;;;;;;;5.89;80.40;98841.59;103415;1302;24256;-30
2022/03/29 06:05:17;;;;;;;9.60;4.60;;;;;;;6.02;80.34;98844.11;103423;1302;24266;-31
2022/03/29 06:07:44;;;;;;;10.00;6.80;;;;;;;6.13;80.15;98849.92;103468;1302;24304;-30
2022/03/29 06:10:11;;;;;;;7.10;2.90;;;;;;;6.25;79.72;98851.66;103413;1302;24210;-28
2022/03/29 06:12:36;;;;;;;9.50;5.90;;;;;;;6.49;78.95;98852.88;103456;1302;24368;-27
2022/03/29 06:15:05;;;;;;;8.10;5.40;;;;;;;6.62;78.34;98848.86;103361;1302;24487;-27
2022/03/29 06:17:30;;;;;;;9.70;5.60;;;;;;;6.86;77.06;98844.94;103480;1302;24437;-25
2022/03/29 06:19:56;;;;;;;10.50;6.70;;;;;;;7.00;76.04;98840.02;103396;1302;24249;-24
2022/03/29 06:22:23;;;;;;;6.60;4.60;;;;;;;7.02;74.77;98844.73;103434;1302;22621;-24
2022/03/29 06:24:49;;;;;;;9.20;5.80;;;;;;;7.06;74.71;98842.23;103459;1301;24288;-27
2022/03/29 06:27:14;;;;;;;10.70;5.10;;;;;;;7.08;74.74;98842.98;103258;1302;24260;-29
2022/03/29 06:29:40;;;;;;;7.70;5.00;;;;;;;7.08;74.54;98841.46;103389;1302;24227;-26
2022/03/29 06:32:06;;;;;;;11.30;3.50;;;;;;;7.39;73.26;98833.26;103387;1302;24368;-25
2022/03/29 06:34:32;;;;;;;6.40;4.80;;;;;;;7.29;72.32;98832.66;103424;1302;24331;-25
2022/03/29 06:36:58;;;;;;;8.50;5.10;;;;;;;7.07;73.73;98837.22;103422;1302;24225;-29
2022/03/29 06:39:25;;;;;;;5.40;3.60;;;;;;;7.09;73.39;98837.45;103498;1302;24304;-28
2022/03/29 06:41:50;;;;;;;4.70;3.60;;;;;;;7.19;72.81;98836.79;103402;1302;24244;-29
2022/03/29 06:44:17;;;;;;;11.70;6.00;;;;;;;7.27;72.44;98835.64;103498;1302;22505;-25
2022/03/29 06:46:43;;;;;;;8.50;6.60;;;;;;;7.35;72.46;98836.42;103396;1302;24224;-26
2022/03/29 06:49:09;;;;;;;7.00;4.80;;;;;;;7.66;71.04;98836.36;103434;1301;24274;-25
2022/03/29 06:51:35;;;;;;;6.30;4.50;;;;;;;7.64;70.99;98835.08;103451;1302;24228;-30
2022/03/29 06:54:02;;;;;;;11.90;7.90;;;;;;;7.68;70.43;98832.44;103407;1302;24285;-27
2022/03/29 06:56:28;;;;;;;8.90;7.20;;;;;;;7.73;70.48;98833.45;103454;1302;24242;-28
2022/03/29 06:58:54;;;;;;;10.80;7.30;;;;;;;7.75;70.17;98829.08;103266;1302;24203;-29
2022/03/29 07:01:21;;;;;;;12.00;5.90;;;;;;;7.80;70.62;98830.73;103427;1302;24320;-28
2022/03/29 07:03:47;;;;;;;12.30;7.00;;;;;;;8.00;69.37;98832.25;103466;1302;24215;-24
2022/03/29 07:06:14;;;;;;;11.50;7.70;;;;;;;8.03;69.10;98833.05;103188;1302;24220;-25
2022/03/29 07:11:16;;;;;;;11.90;7.60;;;;;;;7.98;69.42;98837.45;103449;1302;24355;-25
2022/03/29 07:11:25;;;;;;;8.30;7.40;;;;;;;7.99;69.33;98830.31;103440;1302;24258;-25
2022/03/29 07:13:51;;;;;;;8.70;7.30;;;;;;;8.22;68.93;98829.28;103403;1302;22734;-28
2022/03/29 07:16:17;;;;;;;8.30;5.80;;;;;;;8.37;69.19;98830.75;103456;1302;22961;-30
2022/03/29 07:18:43;;;;;;;10.80;7.00;;;;;;;8.23;68.27;98833.25;103437;1302;22767;-28
2022/03/29 07:21:10;;;;;;;11.40;6.30;;;;;;;8.52;68.59;98834.31;103362;1303;24418;-26
2022/03/29 07:23:37;;;;;;;9.00;6.20;;;;;;;8.57;67.38;98834.38;103516;1302;24295;-31
2022/03/29 07:26:03;;;;;;;10.30;6.60;;;;;;;8.75;66.96;98833.91;103447;1302;24438;-26
2022/03/29 07:28:29;;;;;;;10.60;7.30;;;;;;;8.98;66.42;98833.84;103452;1302;24199;-25
2022/03/29 07:30:54;;;;;;;13.60;7.20;;;;;;;9.01;65.92;98836.84;103467;1302;24251;-29
2022/03/29 07:33:20;;;;;;;13.40;7.40;;;;;;;8.80;66.65;98837.80;103484;1302;24211;-25
2022/03/29 07:35:47;;;;;;;15.80;8.40;;;;;;;8.83;66.36;98844.11;103292;1302;24468;-31
2022/03/29 07:38:12;;;;;;;7.50;5.10;;;;;;;9.31;65.04;98839.88;103423;1302;24251;-28
2022/03/29 07:40:39;;;;;;;14.50;6.20;;;;;;;9.28;65.02;98839.63;103344;1302;24202;-27
2022/03/29 07:43:06;;;;;;;9.00;6.50;;;;;;;8.93;65.46;98841.53;103416;1302;24357;-27
2022/03/29 07:45:31;;;;;;;10.90;6.80;;;;;;;9.17;65.60;98838.05;103320;1302;22692;-28
2022/03/29 07:47:57;;;;;;;20.20;7.30;;;;;;;8.95;65.58;98837.91;103452;1301;24247;-25
2022/03/29 07:50:24;;;;;;;9.40;6.50;;;;;;;8.94;66.03;98839.22;103472;1302;24305;-28
2022/03/29 07:52:50;;;;;;;10.80;7.80;;;;;;;9.05;65.83;98836.75;103467;1302;24216;-29
2022/03/29 07:55:16;;;;;;;6.90;5.10;;;;;;;9.13;65.31;98828.94;103428;1302;24374;-28
2022/03/29 07:57:42;;;;;;;10.40;6.30;;;;;;;9.25;64.84;98825.98;103503;1302;24206;-28
2022/03/29 08:02:39;;;;;;;12.20;6.50;;;;;;;9.57;64.46;98826.00;103363;1302;24134;-29
2022/03/29 08:05:06;;;;;;;10.40;7.00;;;;;;;9.67;64.12;98820.32;103378;1302;24225;-28
2022/03/29 08:07:32;;;;;;;6.60;5.20;;;;;;;9.91;63.32;98816.54;103374;1302;24308;-31
2022/03/29 08:09:58;;;;;;;10.70;7.20;;;;;;;10.17;61.80;98814.30;103465;1302;24263;-29
2022/03/29 08:12:24;;;;;;;10.60;6.90;;;;;;;9.83;62.77;98813.77;103354;1302;24218;-29
2022/03/29 08:14:50;;;;;;;22.40;6.50;;;;;;;10.07;62.25;98815.51;103431;1301;24322;-30
2022/03/29 08:17:15;;;;;;;6.00;3.50;;;;;;;10.15;61.53;98813.85;103393;1301;24266;-29
2022/03/29 08:19:41;;;;;;;6.30;4.90;;;;;;;10.24;61.60;98814.38;103292;1302;24202;-29
2022/03/29 08:22:07;;;;;;;9.90;5.50;;;;;;;10.44;60.37;98816.55;103396;1302;24284;-29
2022/03/29 08:24:34;;;;;;;9.80;7.00;;;;;;;10.28;60.56;98811.89;103355;1302;22714;-28
2022/03/29 08:27:00;;;;;;;9.80;6.20;;;;;;;10.30;61.29;98810.24;103358;1302;24237;-26
2022/03/29 08:29:27;;;;;;;12.20;8.30;;;;;;;10.31;60.79;98804.23;103458;1302;25909;-25
2022/03/29 08:31:53;;;;;;;19.30;9.50;;;;;;;10.49;60.81;98806.02;103449;1302;24239;-28
2022/03/29 08:34:19;;;;;;;11.60;7.70;;;;;;;10.62;59.56;98803.94;103400;1302;22514;-25
2022/03/29 08:36:46;;;;;;;12.30;7.50;;;;;;;10.50;60.29;98804.85;103387;1302;24218;-28
2022/03/29 08:39:12;;;;;;;8.80;7.00;;;;;;;10.31;60.19;98803.83;103355;1302;24368;-29
2022/03/29 08:41:42;;;;;;;17.20;8.60;;;;;;;10.50;59.33;98803.77;103399;1302;22779;-25
2022/03/29 08:44:07;;;;;;;8.30;5.80;;;;;;;10.40;59.53;98800.13;103195;1302;23970;-28
2022/03/29 08:46:36;;;;;;;13.30;9.10;;;;;;;11.39;56.67;98799.48;103405;1302;24218;-27
2022/03/29 08:49:02;;;;;;;9.50;6.30;;;;;;;10.36;59.53;98796.90;103493;1302;22509;-27
2022/03/29 08:51:28;;;;;;;11.20;7.60;;;;;;;10.60;58.42;98792.33;103388;1302;24304;-29
2022/03/29 08:53:53;;;;;;;12.60;9.50;;;;;;;10.32;59.69;98792.30;103522;1302;24237;-28
2022/03/29 08:56:20;;;;;;;14.60;9.10;;;;;;;10.48;60.03;98785.81;103289;1303;24243;-30
2022/03/29 08:58:47;;;;;;;13.30;8.50;;;;;;;10.94;59.12;98781.91;103460;1302;24252;-29
2022/03/29 09:01:13;;;;;;;11.50;8.50;;;;;;;11.47;57.31;98782.77;103349;1302;24268;-29
2022/03/29 09:03:39;;;;;;;16.60;10.20;;;;;;;11.95;55.26;98782.69;103422;1302;24343;-28
2022/03/29 09:06:07;;;;;;;9.50;7.20;;;;;;;11.60;56.03;98783.91;103321;1302;24453;-25
2022/03/29 09:08:41;;;;;;;8.60;5.60;;;;;;;11.47;56.23;98776.73;103414;1302;22859;-28
2022/03/29 09:11:08;;;;;;;25.60;10.40;;;;;;;11.36;56.10;98778.60;103465;1302;24243;-26
2022/03/29 09:13:34;;;;;;;11.20;8.50;;;;;;;10.99;57.07;98783.21;103425;1302;24258;-30
2022/03/29 09:16:01;;;;;;;19.50;9.00;;;;;;;11.58;55.97;98775.41;103409;1301;24355;-25
2022/03/29 09:18:27;;;;;;;13.70;8.40;;;;;;;11.63;55.54;98776.25;103436;1302;22509;-26
2022/03/29 09:21:00;;;;;;;10.70;7.80;;;;;;;11.40;55.65;98774.20;103407;1302;24265;-29
2022/03/29 09:23:26;;;;;;;15.80;5.50;;;;;;;11.64;55.55;98773.30;103427;1302;25431;-27
2022/03/29 09:25:52;;;;;;;9.90;7.20;;;;;;;12.14;53.51;98773.88;103390;1302;24241;-25
2022/03/29 09:28:19;;;;;;;17.50;11.10;;;;;;;11.47;55.74;98773.87;103367;1302;22515;-27
2022/03/29 09:30:47;;;;;;;11.40;6.50;;;;;;;11.27;56.87;98774.80;103437;1302;24470;-29
2022/03/29 09:33:15;;;;;;;20.40;11.30;;;;;;;11.66;56.14;98768.24;103447;1302;22621;-24
2022/03/29 09:35:48;;;;;;;11.30;6.50;;;;;;;12.10;54.11;98766.38;103281;1302;24314;-28
2022/03/29 09:38:20;;;;;;;13.30;8.30;;;;;;;12.24;52.57;98769.10;103400;1302;24278;-25
2022/03/29 09:40:46;;;;;;;9.00;5.60;;;;;;;11.66;54.59;98770.26;103341;1302;23184;-25
2022/03/29 09:43:13;;;;;;;16.90;11.20;;;;;;;11.26;55.77;98768.76;103431;1302;24294;-25
2022/03/29 09:45:40;;;;;;;13.20;9.20;;;;;;;11.13;57.19;98765.54;103457;1302;24362;-27
2022/03/29 09:48:12;;;;;;;12.30;5.80;;;;;;;11.81;53.64;98759.96;103400;1301;24987;-25
2022/03/29 09:50:38;;;;;;;15.80;5.50;;;;;;;11.58;53.80;98761.16;103490;1302;22894;-25
2022/03/29 09:53:04;;;;;;;15.00;9.40;;;;;;;11.64;53.33;98758.44;103471;1302;24241;-29
2022/03/29 09:55:29;;;;;;;14.10;8.00;;;;;;;10.98;55.24;98756.58;103484;1302;24293;-28
2022/03/29 09:57:58;;;;;;;12.50;8.90;;;;;;;11.11;55.23;98756.33;103325;1302;24229;-28
2022/03/29 10:00:37;;;;;;;14.10;10.10;;;;;;;10.67;58.19;98752.49;103424;1302;24286;-26
2022/03/29 10:03:03;;;;;;;17.40;10.70;;;;;;;10.90;58.33;98746.77;103275;1302;24278;-25
2022/03/29 10:05:29;;;;;;;23.30;9.50;;;;;;;10.96;58.17;98744.39;103293;1302;24663;-28
2022/03/29 10:10:27;;;;;;;13.90;9.70;;;;;;;11.05;57.37;98735.64;103461;1302;22512;-28
2022/03/29 10:12:53;;;;;;;18.20;10.40;;;;;;;11.04;57.86;98734.55;103382;1301;24396;-28
2022/03/29 10:15:21;;;;;;;18.40;10.70;;;;;;;11.26;57.42;98724.27;103464;1302;24255;-27
2022/03/29 10:17:48;;;;;;;16.00;9.80;;;;;;;11.35;56.82;98720.94;103446;1300;24335;-27
2022/03/29 10:20:15;;;;;;;16.20;9.10;;;;;;;11.78;55.68;98716.66;103400;1302;24497;-27
2022/03/29 10:22:41;;;;;;;17.60;9.70;;;;;;;11.40;56.96;98714.52;103346;1302;24253;-27
2022/03/29 10:25:07;;;;;;;15.70;9.80;;;;;;;10.95;58.02;98716.96;103292;1302;24214;-30
2022/03/29 10:27:33;;;;;;;16.50;8.60;;;;;;;11.37;57.81;98716.79;103425;1302;24474;-30
2022/03/29 10:29:58;;;;;;;18.60;11.40;;;;;;;11.80;56.81;98710.66;103361;1302;24251;-30
2022/03/29 10:32:28;;;;;;;12.00;8.20;;;;;;;11.74;56.17;98708.48;103405;1302;22505;-25
2022/03/29 10:35:01;;;;;;;15.60;11.20;;;;;;;11.75;55.97;98708.04;103373;1302;24378;-25
2022/03/29 10:37:28;;;;;;;29.70;11.40;;;;;;;11.92;55.78;98704.59;103424;1302;22813;-25
2022/03/29 10:39:56;;;;;;;15.00;9.80;;;;;;;12.14;55.13;98708.91;103471;1302;24202;-29
2022/03/29 10:42:27;;;;;;;16.80;11.30;;;;;;;11.90;55.18;98706.66;103447;1301;22878;-28
2022/03/29 10:44:59;;;;;;;15.30;9.80;;;;;;;11.58;56.52;98705.33;103363;1304;24252;-30
2022/03/29 10:47:26;;;;;;;8.10;6.10;;;;;;;11.56;56.47;98702.40;103462;1302;24145;-27
2022/03/29 10:49:52;;;;;;;18.20;9.60;;;;;;;11.76;56.20;98700.58;103465;1302;24304;-25
2022/03/29 10:52:19;;;;;;;18.50;12.80;;;;;;;11.62;56.79;98694.33;103390;1302;24355;-29
2022/03/29 10:54:46;;;;;;;16.00;10.20;;;;;;;11.93;56.48;98696.54;103462;1302;24468;-29
2022/03/29 10:57:18;;;;;;;18.40;11.70;;;;;;;12.01;55.90;98697.48;103431;1302;24309;-23
2022/03/29 10:59:43;;;;;;;16.40;9.00;;;;;;;11.61;55.78;98697.73;103403;1302;23879;-31
2022/03/29 11:02:15;;;;;;;23.80;12.80;;;;;;;10.93;57.46;98700.41;103375;1302;24362;-24
2022/03/29 11:04:47;;;;;;;17.10;12.10;;;;;;;11.43;56.87;98695.11;103464;1302;22797;-30
2022/03/29 11:07:14;;;;;;;21.00;12.70;;;;;;;11.40;56.89;98691.23;103485;1302;25323;-26
2022/03/29 11:09:40;;;;;;;18.90;11.70;;;;;;;11.31;56.75;98687.55;103451;1302;24395;-30
2022/03/29 11:12:06;;;;;;;13.20;10.10;;;;;;;11.33;56.82;98693.48;103392;1302;24240;-25
2022/03/29 11:14:34;;;;;;;19.10;11.70;;;;;;;11.07;56.96;98690.73;103443;1302;24377;-28
2022/03/29 11:17:04;;;;;;;23.70;10.40;;;;;;;10.85;57.89;98689.09;103471;1302;24253;-29
2022/03/29 11:19:37;;;;;;;24.00;10.90;;;;;;;11.24;57.16;98688.80;103403;1302;24288;-29
2022/03/29 11:22:25;;;;;;;18.60;12.10;;;;;;;11.39;56.97;98687.27;103384;1302;24302;-29
2022/03/29 11:24:52;;;;;;;11.90;9.80;;;;;;;11.23;57.06;98682.95;103457;1302;24250;-24
2022/03/29 11:27:22;;;;;;;25.20;11.20;;;;;;;11.70;56.34;98678.61;103305;1302;24344;-27
2022/03/29 11:29:51;;;;;;;16.30;11.60;;;;;;;11.51;55.99;98677.50;103564;1300;24192;-28